ADDS METAR Data INFO
IDs: Format: Raw Decoded Include TAF

Data at: 0312 UTC 17 Jan 2018

KPCM 170255Z AUTO 08004KT 10SM CLR 14/09 A3032 RMK AO2
KPCM 170235Z AUTO 06004KT 10SM CLR 14/09 A3032 RMK AO2
KPCM 170215Z AUTO 05004KT 10SM CLR 15/09 A3032 RMK AO2
KPCM 170155Z AUTO 05006KT 10SM CLR 15/08 A3032 RMK AO2
KPCM 170135Z AUTO 03004KT 10SM CLR 16/07 A3031 RMK AO2
KPCM 170115Z AUTO 03003KT 10SM CLR 15/07 A3030 RMK AO2
KPCM 170055Z AUTO 02003KT 10SM CLR 15/08 A3030 RMK AO2
KPCM 170035Z AUTO 02003KT 10SM CLR 16/07 A3030 RMK AO2
KPCM 170015Z AUTO 02003KT 10SM SCT070 17/07 A3030 RMK AO2
KPCM 162355Z AUTO 00000KT 10SM CLR 18/07 A3030 RMK AO2
KPCM 162335Z AUTO 02003KT 10SM CLR 18/07 A3029 RMK AO2
KPCM 162315Z AUTO 02003KT 10SM CLR 19/08 A3029 RMK AO2
KPCM 162255Z AUTO 01003KT 10SM CLR 19/07 A3029 RMK AO2
KPCM 162235Z AUTO 36004KT 10SM BKN070 20/07 A3028 RMK AO2
KPCM 162215Z AUTO 36005KT 10SM BKN060 OVC070 21/07 A3029 RMK AO2
KPCM 162155Z AUTO 02006KT 10SM BKN065 BKN070 22/07 A3029 RMK AO2
KPCM 162135Z AUTO 07005KT 10SM SCT065 22/07 A3029 RMK AO2
KPCM 162115Z AUTO 35003KT 10SM SCT002 SCT065 22/06 A3029 RMK AO2
KPCM 162055Z AUTO 34005KT 10SM CLR 23/07 A3028 RMK AO2
KPCM 162035Z AUTO 34006KT 10SM SCT055 23/06 A3029 RMK AO2
KPCM 162015Z AUTO 04004KT 10SM SCT055 SCT070 23/07 A3029 RMK AO2
KPCM 161955Z AUTO 00000KT 10SM SCT055 BKN070 21/07 A3030 RMK AO2
KPCM 161935Z AUTO 35007KT 335V045 10SM SCT055 BKN070 23/08 A3030 RMK AO2
KPCM 161915Z AUTO 04006KT 10SM SCT060 23/08 A3030 RMK AO2
KPCM 161855Z AUTO 04003KT 10SM BKN060 22/07 A3031 RMK AO2
KPCM 161835Z AUTO 04004KT 10SM SCT050 23/07 A3032 RMK AO2
KPCM 161815Z AUTO 11006KT 10SM SCT049 SCT055 BKN065 23/08 A3033 RMK AO2
KPCM 161755Z AUTO 06005KT 10SM SCT045 BKN065 22/08 A3035 RMK AO2
KPCM 161735Z AUTO 10007KT 10SM CLR 22/09 A3035 RMK AO2
KPCM 161715Z AUTO 08006KT 10SM CLR 22/10 A3037 RMK AO2
KPCM 161655Z AUTO 08007KT 10SM CLR 21/10 A3037 RMK AO2
KPCM 161635Z AUTO 06004KT 10SM CLR 21/10 A3038 RMK AO2
KPCM 161615Z AUTO 06008KT 10SM CLR 20/10 A3039 RMK AO2
KPCM 161555Z AUTO 07006KT 10SM CLR 19/10 A3040 RMK AO2
KPCM 161535Z AUTO 05006KT 10SM CLR 18/10 A3040 RMK AO2
KPCM 161515Z AUTO 03005KT 7SM CLR 16/09 A3040 RMK AO2
KPCM 161455Z AUTO 04005KT 10SM CLR 15/09 A3041 RMK AO2
KPCM 161435Z AUTO 04005KT 10SM CLR 13/08 A3040 RMK AO2
KPCM 161415Z AUTO 03007KT 10SM CLR 12/08 A3040 RMK AO2
KPCM 161355Z AUTO 04004KT 10SM CLR 11/08 A3039 RMK AO2
KPCM 161335Z AUTO 04005KT 10SM CLR 10/07 A3039 RMK AO2
KPCM 161315Z AUTO 02005KT 10SM SCT065 08/06 A3038 RMK AO2
KPCM 161255Z AUTO 03004KT 10SM BKN065 08/06 A3038 RMK AO2
KPCM 161235Z AUTO 02005KT 10SM BKN065 08/06 A3038 RMK AO2
KPCM 161215Z AUTO 02004KT 10SM BKN065 07/06 A3038 RMK AO2
KPCM 161155Z AUTO 03003KT 10SM SCT065 07/06 A3037 RMK AO2
KPCM 161135Z AUTO 02003KT 10SM SCT065 07/06 A3037 RMK AO2
KPCM 161115Z AUTO 02004KT 10SM SCT065 07/06 A3037 RMK AO2
KPCM 161055Z AUTO 02003KT 10SM BKN065 08/06 A3036 RMK AO2
KPCM 161035Z AUTO 01004KT 10SM BKN065 08/06 A3036 RMK AO2
KPCM 161015Z AUTO 03004KT 10SM SCT065 08/06 A3035 RMK AO2
KPCM 160955Z AUTO 02004KT 10SM SCT070 08/06 A3035 RMK AO2
KPCM 160935Z AUTO 02004KT 10SM SCT070 08/06 A3035 RMK AO2
KPCM 160915Z AUTO 03005KT 10SM BKN070 08/06 A3035 RMK AO2
KPCM 160855Z AUTO 02006KT 10SM OVC060 08/06 A3035 RMK AO2
KPCM 160835Z AUTO 02005KT 10SM BKN060 08/05 A3035 RMK AO2
KPCM 160815Z AUTO 02004KT 10SM OVC060 08/05 A3035 RMK AO2
KPCM 160755Z AUTO 02004KT 10SM BKN060 08/05 A3035 RMK AO2
KPCM 160735Z AUTO 02005KT 10SM BKN060 08/05 A3035 RMK AO2
KPCM 160715Z AUTO 03005KT 10SM BKN060 08/05 A3035 RMK AO2
KPCM 160655Z AUTO 03006KT 10SM BKN060 08/05 A3036 RMK AO2
KPCM 160635Z AUTO 03005KT 10SM BKN060 08/05 A3036 RMK AO2
KPCM 160615Z AUTO 03005KT 10SM BKN060 08/05 A3036 RMK AO2
KPCM 160555Z AUTO 03006KT 10SM BKN060 08/05 A3037 RMK AO2
KPCM 160535Z AUTO 03006KT 10SM BKN060 09/05 A3037 RMK AO2
KPCM 160515Z AUTO 02006KT 10SM SCT060 09/05 A3038 RMK AO2
KPCM 160455Z AUTO 02006KT 10SM CLR 09/05 A3038 RMK AO2
KPCM 160435Z AUTO 02005KT 10SM CLR 09/04 A3038 RMK AO2
KPCM 160415Z AUTO 03005KT 10SM CLR 09/04 A3038 RMK AO2
KPCM 160355Z AUTO 03006KT 10SM CLR 10/04 A3038 RMK AO2
KPCM 160335Z AUTO 03006KT 10SM SCT060 10/04 A3039 RMK AO2
KPCM 160315Z AUTO 04008KT 10SM CLR 11/04 A3039 RMK AO2
KPCM 160255Z AUTO 04006KT 10SM CLR 11/04 A3038 RMK AO2
KPCM 160235Z AUTO 03005KT 10SM CLR 11/03 A3038 RMK AO2
KPCM 160215Z AUTO 04008KT 10SM CLR 12/04 A3038 RMK AO2
KPCM 160155Z AUTO 05006KT 10SM SCT060 12/04 A3038 RMK AO2
KPCM 160135Z AUTO 04007KT 10SM SCT060 13/04 A3038 RMK AO2
KPCM 160115Z AUTO 04007KT 10SM SCT060 13/04 A3037 RMK AO2
KPCM 160055Z AUTO 03009G14KT 10SM CLR 14/04 A3037 RMK AO2
KPCM 160035Z AUTO 04007KT 10SM CLR 14/05 A3036 RMK AO2
KPCM 160015Z AUTO 04008KT 10SM CLR 15/05 A3035 RMK AO2
KPCM 152355Z AUTO 03009KT 10SM CLR 15/06 A3035 RMK AO2
KPCM 152335Z AUTO 04008KT 10SM CLR 16/06 A3035 RMK AO2
KPCM 152315Z AUTO 04008KT 10SM CLR 16/06 A3034 RMK AO2
KPCM 152255Z AUTO 03005KT 10SM CLR 17/06 A3033 RMK AO2
KPCM 152235Z AUTO 02005KT 10SM CLR 18/05 A3032 RMK AO2
KPCM 152215Z AUTO 02006KT 10SM CLR 18/05 A3032 RMK AO2
KPCM 152155Z AUTO 01007KT 10SM CLR 19/05 A3031 RMK AO2
KPCM 152135Z AUTO 36008KT 10SM CLR 19/06 A3030 RMK AO2
KPCM 152115Z AUTO 04006KT 10SM CLR 20/06 A3030 RMK AO2
KPCM 152055Z AUTO 01008KT 10SM CLR 20/06 A3030 RMK AO2
KPCM 152035Z AUTO 01006KT 10SM CLR 20/06 A3030 RMK AO2
KPCM 152015Z AUTO 03008KT 10SM CLR 20/06 A3030 RMK AO2
KPCM 151955Z AUTO 02010G14KT 10SM CLR 20/06 A3030 RMK AO2
KPCM 151935Z AUTO 03007KT 10SM CLR 20/06 A3030 RMK AO2
KPCM 151915Z AUTO 01006KT 10SM CLR 19/06 A3031 RMK AO2
KPCM 151855Z AUTO 05009KT 10SM CLR 20/06 A3031 RMK AO2
KPCM 151835Z AUTO 02008KT 10SM CLR 19/06 A3032 RMK AO2
KPCM 151815Z AUTO 04008KT 10SM CLR 19/06 A3033 RMK AO2
KPCM 151755Z AUTO 02008KT 305V055 10SM CLR 18/06 A3035 RMK AO2
KPCM 151735Z AUTO 36009KT 10SM CLR 17/06 A3036 RMK AO2
KPCM 151715Z AUTO 02008KT 10SM CLR 17/06 A3038 RMK AO2
KPCM 151655Z AUTO 35007KT 10SM CLR 16/06 A3038 RMK AO2
KPCM 151635Z AUTO 02007KT 10SM CLR 16/06 A3039 RMK AO2
KPCM 151555Z AUTO 36006KT 10SM SCT037 14/06 A3041 RMK AO2
KPCM 151535Z AUTO 34006KT 10SM BKN037 13/06 A3042 RMK AO2
KPCM 151515Z AUTO 36007KT 10SM SCT037 SCT049 13/06 A3041 RMK AO2